Portada
METAR-TAF:

METAR-TAF

Aeropuertos :

El Cairo, Egipto

Aeropuerto Internacional de El Cairo

latitud: 30-08N, longitud: 031-24E, altitud: 64 m

Observación

El informe se hizo hace 30 minutos, a las 20:00 UTC
Viento 7 kt del este
Temperatura 17°C
Humedad 77%
Presión 1021 hPa
Visibilidad 10 km o más
sin nubes por debajo de 1500 m y sin presencia de cumulonimbus.

METAR: HECA 162000Z 08007KT CAVOK 17/13 Q1021 NOSIG

Hora: 22:30 (20:30 UTC)

Pronóstico

El informe se hizo hace 3 horas y 30 minutos, a las 17:00 UTC
Pronóstico válido del 16 a las 18 UTC al 17 a las 24 UTC
Viento 9 kt del norte
Visibilidad 10 km o más
sin nubes por debajo de 1500 m y sin presencia de cumulonimbus.
Temporalmente
del 17 a las 02 UTC al 17 a las 06 UTC
Viento 3 kt con dirección variable
Visibilidad: 4000 m
neblina

TAF: HECA 161700Z 1618/1724 01009KT CAVOK TEMPO 1702/1706 VRB03KT 4000 BR NSC

Observaciones y pronósticos meteorológicos de más de 4000 aeropuertos (mensajes METAR y TAF).

Los puntos amarillos y rojos representan las estaciones disponibles.

Ponga el ratón en el punto deseado para ver el nombre de la estación.

Haga clic para ver las observaciones y los pronósticos meteorológicos.

Para cambiar el mapa : haga clic en los botones verdes con una cruz de color negro para hacer un zoom, en el botón verde con un guión para alejar o en las flechas verdes para mapas adyacentes.


METAR-TAF: